createdAt,value
2022-09-20T00:01:55.073Z,96967.03
2022-09-20T00:04:21.432Z,96959.03
2022-09-20T00:06:47.781Z,96963.25
2022-09-20T00:09:14.148Z,96970.47
2022-09-20T00:11:40.513Z,96959.03
2022-09-20T00:14:06.877Z,96964.25
2022-09-20T00:16:33.338Z,96962.03
2022-09-20T00:18:59.777Z,96960.81
2022-09-20T00:21:26.142Z,96964.09
2022-09-20T00:23:52.515Z,96964.44
2022-09-20T00:26:18.875Z,96953.31
2022-09-20T00:28:45.240Z,96957.56
2022-09-20T00:31:11.602Z,96957.03
2022-09-20T00:33:37.959Z,96954.03
2022-09-20T00:36:04.333Z,96952.47
2022-09-20T00:38:30.680Z,96950.25
2022-09-20T00:40:57.025Z,96946.38
2022-09-20T00:43:23.390Z,96939.06
2022-09-20T00:45:49.809Z,96942.38
2022-09-20T00:48:16.205Z,96940.19
2022-09-20T00:50:42.570Z,96942.75
2022-09-20T00:53:08.919Z,96937.94
2022-09-20T00:55:35.277Z,96942.84
2022-09-20T00:58:01.643Z,96939.41
2022-09-20T01:00:27.991Z,96938.28
2022-09-20T01:02:54.361Z,96944.06
2022-09-20T01:05:20.711Z,96936.25
2022-09-20T01:07:47.167Z,96928.63
2022-09-20T01:10:13.526Z,96937.31
2022-09-20T01:12:39.881Z,96937.41
2022-09-20T01:15:06.239Z,96928.63
2022-09-20T01:17:32.596Z,96930.06
2022-09-20T01:19:58.948Z,96932.47
2022-09-20T01:22:25.314Z,96933.19
2022-09-20T01:24:51.674Z,96925.50
2022-09-20T01:27:18.023Z,96929.41
2022-09-20T01:29:44.386Z,96930.59
2022-09-20T01:32:10.845Z,96922.91
2022-09-20T01:34:37.243Z,96926.38
2022-09-20T01:37:03.624Z,96928.63
2022-09-20T01:39:29.976Z,96925.59
2022-09-20T01:41:56.323Z,96922.91
2022-09-20T01:44:22.688Z,96924.94
2022-09-20T01:46:49.040Z,96922.50
2022-09-20T01:49:15.417Z,96916.66
2022-09-20T01:51:41.785Z,96922.84
2022-09-20T01:54:08.141Z,96916.16
2022-09-20T01:56:34.500Z,96913.72
2022-09-20T01:59:22.615Z,96915.28
2022-09-20T02:01:47.196Z,96919.47
2022-09-20T02:04:13.558Z,96917.50
2022-09-20T02:06:39.907Z,96918.34
2022-09-20T02:09:06.347Z,96909.25
2022-09-20T02:11:32.711Z,96914.06
2022-09-20T02:13:59.075Z,96908.72
2022-09-20T02:16:25.456Z,96913.63
2022-09-20T02:18:51.818Z,96915.09
2022-09-20T02:21:18.194Z,96916.22
2022-09-20T02:23:44.587Z,96918.88
2022-09-20T02:26:10.936Z,96922.25
2022-09-20T02:28:37.306Z,96919.31
2022-09-20T02:31:03.675Z,96914.41
2022-09-20T02:33:30.033Z,96915.78
2022-09-20T02:35:56.388Z,96915.09
2022-09-20T02:38:22.763Z,96912.09
2022-09-20T02:40:49.119Z,96914.31
2022-09-20T02:43:15.482Z,96907.44
2022-09-20T02:45:41.905Z,96905.09
2022-09-20T02:48:08.324Z,96910.03
2022-09-20T02:50:34.675Z,96908.22
2022-09-20T02:53:01.036Z,96910.88
2022-09-20T02:55:27.392Z,96911.59
2022-09-20T02:57:53.746Z,96907.44
2022-09-20T03:00:20.114Z,96908.56
2022-09-20T03:02:46.470Z,96910.38
2022-09-20T03:05:12.840Z,96906.91
2022-09-20T03:07:39.207Z,96912.78
2022-09-20T03:10:05.585Z,96919.22
2022-09-20T03:12:31.944Z,96917.34
2022-09-20T03:14:58.296Z,96917.34
2022-09-20T03:17:24.657Z,96922.66
2022-09-20T03:19:51.024Z,96925.69
2022-09-20T03:22:17.376Z,96926.44
2022-09-20T03:24:43.727Z,96923.78
2022-09-20T03:27:10.092Z,96920.69
2022-09-20T03:29:36.449Z,96922.94
2022-09-20T03:32:02.880Z,96924.16
2022-09-20T03:34:29.251Z,96918.03
2022-09-20T03:36:55.605Z,96923.44
2022-09-20T03:39:21.969Z,96920.25
2022-09-20T03:41:48.321Z,96931.38
2022-09-20T03:44:14.685Z,96926.28
2022-09-20T03:46:41.054Z,96922.47
2022-09-20T03:49:07.416Z,96933.53
2022-09-20T03:51:34.429Z,96928.59
2022-09-20T03:54:00.917Z,96920.97
2022-09-20T03:56:27.271Z,96924.03
2022-09-20T03:58:53.630Z,96926.72
2022-09-20T04:01:20.020Z,96926.63
2022-09-20T04:03:46.402Z,96926.19
2022-09-20T04:06:12.760Z,96925.78
2022-09-20T04:08:40.353Z,96926.88
2022-09-20T04:11:06.888Z,96928.53
2022-09-20T04:13:33.238Z,96933.16
2022-09-20T04:15:59.602Z,96932.03
2022-09-20T04:18:25.997Z,96928.97
2022-09-20T04:20:52.375Z,96928.53
2022-09-20T04:23:18.738Z,96937.31
2022-09-20T04:25:45.088Z,96931.53
2022-09-20T04:28:11.542Z,96929.22
2022-09-20T04:30:37.915Z,96932.31
2022-09-20T04:33:04.267Z,96932.31
2022-09-20T04:35:30.628Z,96930.75
2022-09-20T04:37:56.990Z,96926.56
2022-09-20T04:40:23.427Z,96923.09
2022-09-20T04:42:49.828Z,96929.97
2022-09-20T04:45:16.193Z,96931.19
2022-09-20T04:47:42.561Z,96926.13
2022-09-20T04:50:08.913Z,96932.91
2022-09-20T04:52:35.279Z,96939.78
2022-09-20T04:55:01.626Z,96940.91
2022-09-20T04:57:27.981Z,96947.78
2022-09-20T04:59:54.357Z,96946.22
2022-09-20T05:02:20.756Z,96953.47
2022-09-20T05:04:47.121Z,96953.13
2022-09-20T05:07:13.479Z,96952.59
2022-09-20T05:09:39.840Z,96951.94
2022-09-20T05:12:06.197Z,96959.50
2022-09-20T05:14:32.555Z,96956.03
2022-09-20T05:16:58.979Z,96951.03
2022-09-20T05:19:25.380Z,96957.16
2022-09-20T05:21:51.740Z,96959.94
2022-09-20T05:24:18.096Z,96957.59
2022-09-20T05:26:44.459Z,96959.16
2022-09-20T05:29:10.826Z,96953.81
2022-09-20T05:31:37.268Z,96955.72
2022-09-20T05:34:03.650Z,96959.56
2022-09-20T05:36:33.770Z,96969.81
2022-09-20T05:39:03.402Z,96976.69
2022-09-20T05:41:30.184Z,96983.16
2022-09-20T05:43:56.537Z,96979.00
2022-09-20T05:46:22.909Z,96977.91
2022-09-20T05:48:49.266Z,96982.78
2022-09-20T05:51:15.650Z,96976.78
2022-09-20T05:53:42.004Z,96981.69
2022-09-20T05:56:08.360Z,96983.69
2022-09-20T05:58:34.719Z,96980.13
2022-09-20T06:01:01.102Z,96987.72
2022-09-20T06:03:27.486Z,96984.81
2022-09-20T06:05:53.855Z,96988.59
2022-09-20T06:08:20.200Z,96992.56
2022-09-20T06:10:46.548Z,96996.53
2022-09-20T06:13:12.911Z,97000.41
2022-09-20T06:15:39.274Z,96995.97
2022-09-20T06:18:05.644Z,96999.50
2022-09-20T06:20:32.005Z,96999.03
2022-09-20T06:22:58.375Z,96999.03
2022-09-20T06:25:24.733Z,97009.03
2022-09-20T06:27:51.093Z,97009.03
2022-09-20T06:30:17.558Z,97003.72
2022-09-20T06:32:43.916Z,97001.28
2022-09-20T06:35:10.277Z,97016.94
2022-09-20T06:37:36.635Z,97016.53
2022-09-20T06:40:03.047Z,97020.03
2022-09-20T06:42:29.429Z,97023.81
2022-09-20T06:44:55.879Z,97027.97
2022-09-20T06:47:22.224Z,97022.19
2022-09-20T06:49:48.568Z,97022.97
2022-09-20T06:52:14.928Z,97024.50
2022-09-20T06:54:41.292Z,97016.41
2022-09-20T06:57:07.648Z,97018.41
2022-09-20T06:59:34.002Z,97023.28
2022-09-20T07:02:00.452Z,97023.28
2022-09-20T07:04:26.856Z,97020.63
2022-09-20T07:06:53.213Z,97026.75
2022-09-20T07:09:19.584Z,97024.50
2022-09-20T07:11:45.942Z,97024.16
2022-09-20T07:14:12.311Z,97027.19
2022-09-20T07:16:38.750Z,97025.63
2022-09-20T07:19:05.141Z,97021.06
2022-09-20T07:21:31.513Z,97030.19
2022-09-20T07:23:57.890Z,97027.06
2022-09-20T07:26:24.254Z,97030.19
2022-09-20T07:28:50.624Z,97028.63
2022-09-20T07:31:17.033Z,97027.84
2022-09-20T07:33:43.446Z,97028.22
2022-09-20T07:36:09.824Z,97024.75
2022-09-20T07:38:36.176Z,97020.88
2022-09-20T07:41:02.549Z,97022.50
2022-09-20T07:43:28.912Z,97016.75
2022-09-20T07:45:55.327Z,97026.66
2022-09-20T07:48:21.711Z,97032.00
2022-09-20T07:50:48.077Z,97041.09
2022-09-20T07:53:14.549Z,97024.75
2022-09-20T07:55:40.921Z,97030.88
2022-09-20T07:58:07.285Z,97034.97
2022-09-20T08:00:33.666Z,97036.53
2022-09-20T08:03:00.024Z,97030.44
2022-09-20T08:05:26.385Z,97029.75
2022-09-20T08:07:52.758Z,97037.31
2022-09-20T08:10:19.116Z,97035.44
2022-09-20T08:15:31.829Z,97036.97
2022-09-20T08:17:58.183Z,97028.22
2022-09-20T08:20:24.557Z,97032.06
2022-09-20T08:23:12.597Z,97041.19
2022-09-20T08:25:37.286Z,97029.75
2022-09-20T08:28:03.649Z,97039.28
2022-09-20T08:30:30.023Z,97036.63
2022-09-20T08:32:56.396Z,97049.53
2022-09-20T08:35:22.768Z,97041.97
2022-09-20T08:37:49.379Z,97046.19
2022-09-20T08:40:15.844Z,97048.06
2022-09-20T08:42:44.693Z,97040.84
2022-09-20T08:45:11.363Z,97051.50
2022-09-20T08:47:37.780Z,97054.97
2022-09-20T08:50:11.763Z,97050.41
2022-09-20T08:52:38.692Z,97044.97
2022-09-20T08:55:07.492Z,97052.28
2022-09-20T08:57:34.272Z,97045.50
2022-09-20T09:00:00.642Z,97058.75
2022-09-20T09:02:27.042Z,97054.63
2022-09-20T09:04:53.441Z,97043.59
2022-09-20T09:07:19.820Z,97041.63
2022-09-20T09:09:46.195Z,97043.97
2022-09-20T09:12:12.571Z,97047.75
2022-09-20T09:14:38.931Z,97038.19
2022-09-20T09:17:05.356Z,97036.28
2022-09-20T09:19:34.697Z,97031.41
2022-09-20T09:22:01.085Z,97033.28
2022-09-20T09:24:27.457Z,97024.59
2022-09-20T09:26:53.830Z,97027.28
2022-09-20T09:29:20.212Z,97031.81
2022-09-20T09:31:46.638Z,97031.03
2022-09-20T09:34:13.060Z,97031.03
2022-09-20T09:36:39.441Z,97023.41
2022-09-20T09:39:05.826Z,97021.59
2022-09-20T09:41:32.202Z,97015.50
2022-09-20T09:43:58.569Z,97014.38
2022-09-20T09:46:25.036Z,97012.13
2022-09-20T09:48:51.437Z,97012.56
2022-09-20T09:51:17.822Z,97010.69
2022-09-20T09:53:44.217Z,97007.69
2022-09-20T09:56:14.006Z,97001.56
2022-09-20T09:58:40.754Z,97005.34
2022-09-20T10:01:07.158Z,96999.25
2022-09-20T10:03:33.569Z,97009.03
2022-09-20T10:05:59.957Z,97005.28
2022-09-20T10:08:26.327Z,97008.28
2022-09-20T10:10:52.702Z,97012.13
2022-09-20T10:13:19.103Z,96999.94
2022-09-20T10:15:45.500Z,97000.47
2022-09-20T10:18:11.876Z,97006.56
2022-09-20T10:20:38.254Z,97003.13
2022-09-20T10:23:39.465Z,97003.47
2022-09-20T10:25:50.999Z,97002.69
2022-09-20T10:28:17.376Z,97000.78
2022-09-20T10:30:43.804Z,96999.56
2022-09-20T10:33:10.213Z,96997.69
2022-09-20T10:35:36.609Z,96998.00
2022-09-20T10:38:02.981Z,96990.78
2022-09-20T10:40:29.483Z,96986.59
2022-09-20T10:42:55.875Z,96988.13
2022-09-20T10:45:53.317Z,96983.94
2022-09-20T10:48:08.627Z,96985.03
2022-09-20T10:50:35.001Z,96984.34
2022-09-20T10:53:01.665Z,96981.69
2022-09-20T10:55:28.181Z,96974.38
2022-09-20T10:57:54.551Z,96979.34
2022-09-20T11:00:20.911Z,96981.25
2022-09-20T11:02:47.283Z,96984.34
2022-09-20T11:05:13.643Z,96977.91
2022-09-20T11:07:40.013Z,96979.00
2022-09-20T11:10:06.533Z,96978.59
2022-09-20T11:12:32.966Z,96980.13
2022-09-20T11:14:59.335Z,96972.47
2022-09-20T11:17:25.814Z,96979.00
2022-09-20T11:19:52.183Z,96978.69
2022-09-20T11:22:18.573Z,96980.56
2022-09-20T11:24:44.966Z,96975.22
2022-09-20T11:27:11.331Z,96974.13
2022-09-20T11:29:37.705Z,96981.00
2022-09-20T11:32:04.152Z,96971.47
2022-09-20T11:34:30.572Z,96968.09
2022-09-20T11:36:56.936Z,96965.00
2022-09-20T11:39:23.317Z,96971.19
2022-09-20T11:41:49.693Z,96967.31
2022-09-20T11:44:16.067Z,96968.78
2022-09-20T11:46:42.441Z,96966.13
2022-09-20T11:49:08.813Z,96967.69
2022-09-20T11:51:35.201Z,96958.91
2022-09-20T11:54:01.575Z,96966.13
2022-09-20T11:56:27.951Z,96970.75
2022-09-20T11:58:54.339Z,96962.75
2022-09-20T12:01:23.057Z,96963.44
2022-09-20T12:04:04.094Z,96963.13
2022-09-20T12:06:38.990Z,96947.19
2022-09-20T12:09:05.361Z,96950.13
2022-09-20T12:11:31.758Z,96948.31
2022-09-20T12:13:58.134Z,96945.31
2022-09-20T12:16:24.527Z,96955.53
2022-09-20T12:18:50.932Z,96952.44
2022-09-20T12:21:17.425Z,96949.41
2022-09-20T12:23:43.882Z,96947.13
2022-09-20T12:26:10.251Z,96943.66
2022-09-20T12:28:36.631Z,96943.66
2022-09-20T12:31:03.007Z,96944.09
2022-09-20T12:33:29.372Z,96941.34
2022-09-20T12:35:55.764Z,96937.56
2022-09-20T12:38:22.284Z,96931.44
2022-09-20T12:40:48.684Z,96937.97
2022-09-20T12:43:15.053Z,96936.84
2022-09-20T12:45:41.478Z,96939.53
2022-09-20T12:48:07.857Z,96935.75
2022-09-20T12:50:34.263Z,96926.97
2022-09-20T12:53:00.693Z,96932.31
2022-09-20T12:55:27.093Z,96934.28
2022-09-20T12:57:53.463Z,96927.41
2022-09-20T13:00:19.833Z,96920.19
2022-09-20T13:02:46.199Z,96931.63
2022-09-20T13:05:12.579Z,96919.41
2022-09-20T13:07:43.361Z,96919.47
2022-09-20T13:10:10.288Z,96926.28
2022-09-20T13:12:36.673Z,96917.16
2022-09-20T13:15:03.069Z,96926.28
2022-09-20T13:17:29.496Z,96909.59
2022-09-20T13:19:55.882Z,96915.69
2022-09-20T13:22:22.256Z,96918.72
2022-09-20T13:24:48.643Z,96911.81
2022-09-20T13:27:19.437Z,96916.41
2022-09-20T13:29:46.041Z,96919.06
2022-09-20T13:32:12.414Z,96920.25
2022-09-20T13:34:38.793Z,96920.59
2022-09-20T13:37:05.179Z,96919.47
2022-09-20T13:39:31.558Z,96906.91
2022-09-20T13:41:57.923Z,96912.59
2022-09-20T13:44:24.309Z,96914.94
2022-09-20T13:46:50.681Z,96917.25
2022-09-20T13:49:17.043Z,96913.03
2022-09-20T13:51:43.426Z,96908.03
2022-09-20T13:54:09.806Z,96905.38
2022-09-20T13:56:36.185Z,96912.25
2022-09-20T13:59:02.555Z,96906.91
2022-09-20T14:01:29.069Z,96907.69
2022-09-20T14:03:55.509Z,96908.47
2022-09-20T14:06:21.881Z,96905.81
2022-09-20T14:08:48.265Z,96905.03
2022-09-20T14:11:14.631Z,96911.91
2022-09-20T14:13:41.010Z,96913.47
2022-09-20T14:16:07.384Z,96900.13
2022-09-20T14:18:33.743Z,96901.59
2022-09-20T14:21:00.111Z,96905.81
2022-09-20T14:23:26.573Z,96901.69
2022-09-20T14:25:52.943Z,96908.13
2022-09-20T14:28:19.316Z,96907.38
2022-09-20T14:30:45.698Z,96899.03
2022-09-20T14:33:12.084Z,96898.91
2022-09-20T14:35:38.457Z,96906.66
2022-09-20T14:38:04.850Z,96903.59
2022-09-20T14:40:31.250Z,96896.00
2022-09-20T14:42:57.679Z,96892.91
2022-09-20T14:45:24.121Z,96902.44
2022-09-20T14:47:50.586Z,96896.00
2022-09-20T14:50:19.692Z,96890.66
2022-09-20T14:52:46.092Z,96886.44
2022-09-20T14:55:12.472Z,96892.53
2022-09-20T14:57:38.841Z,96894.09
2022-09-20T15:00:05.222Z,96888.69
2022-09-20T15:02:31.629Z,96886.81
2022-09-20T15:04:58.019Z,96893.31
2022-09-20T15:07:24.386Z,96890.66
2022-09-20T15:09:50.766Z,96896.75
2022-09-20T15:12:17.150Z,96894.88
2022-09-20T15:14:43.511Z,96900.53
2022-09-20T15:17:09.985Z,96893.69
2022-09-20T15:19:36.355Z,96895.22
2022-09-20T15:22:02.735Z,96897.09
2022-09-20T15:24:29.114Z,96894.44
2022-09-20T15:26:55.580Z,96894.53
2022-09-20T15:29:21.957Z,96897.22
2022-09-20T15:31:48.389Z,96899.44
2022-09-20T15:34:14.805Z,96895.91
2022-09-20T15:36:41.193Z,96897.47
2022-09-20T15:39:07.567Z,96895.22
2022-09-20T15:41:33.953Z,96898.66
2022-09-20T15:44:00.337Z,96895.22
2022-09-20T15:46:26.737Z,96891.88
2022-09-20T15:48:53.103Z,96898.31
2022-09-20T15:51:19.468Z,96894.44
2022-09-20T15:53:45.849Z,96899.44
2022-09-20T15:56:12.232Z,96897.97
2022-09-20T15:58:38.601Z,96890.66
2022-09-20T16:01:05.061Z,96902.09
2022-09-20T16:03:31.466Z,96901.31
2022-09-20T16:06:01.979Z,96901.00
2022-09-20T16:08:30.420Z,96908.66
2022-09-20T16:10:56.788Z,96906.66
2022-09-20T16:13:23.161Z,96905.53
2022-09-20T16:15:49.563Z,96908.66
2022-09-20T16:18:15.945Z,96909.31
2022-09-20T16:20:42.339Z,96908.66
2022-09-20T16:23:08.704Z,96916.13
2022-09-20T16:25:35.086Z,96922.00
2022-09-20T16:28:01.465Z,96917.34
2022-09-20T16:30:27.841Z,96921.13
2022-09-20T16:32:54.208Z,96918.09
2022-09-20T16:35:20.596Z,96922.34
2022-09-20T16:37:46.974Z,96933.78
2022-09-20T16:40:13.379Z,96928.78
2022-09-20T16:42:39.781Z,96932.66
2022-09-20T16:45:06.157Z,96935.22
2022-09-20T16:47:32.548Z,96933.34
2022-09-20T16:49:58.923Z,96945.22
2022-09-20T16:52:25.297Z,96937.13
2022-09-20T16:54:51.664Z,96939.78
2022-09-20T16:57:18.053Z,96941.72
2022-09-20T16:59:44.434Z,96942.44
2022-09-20T17:02:10.800Z,96955.38
2022-09-20T17:04:37.189Z,96950.81
2022-09-20T17:07:03.569Z,96947.03
2022-09-20T17:09:29.938Z,96941.25
2022-09-20T17:11:56.321Z,96954.59
2022-09-20T17:14:22.687Z,96952.38
2022-09-20T17:16:49.076Z,96959.25
2022-09-20T17:19:15.463Z,96955.78
2022-09-20T17:21:41.823Z,96964.16
2022-09-20T17:24:08.209Z,96976.72
2022-09-20T17:26:34.606Z,96975.16
2022-09-20T17:29:00.980Z,96977.84
2022-09-20T17:31:27.410Z,96974.72
2022-09-20T17:33:53.854Z,96979.28
2022-09-20T17:36:20.232Z,96985.41
2022-09-20T17:38:46.613Z,96986.94
2022-09-20T17:41:12.994Z,96994.94
2022-09-20T17:43:39.433Z,96991.16
2022-09-20T17:46:05.819Z,96995.41
2022-09-20T17:48:32.195Z,96993.50
2022-09-20T17:50:58.574Z,97001.16
2022-09-20T17:53:24.952Z,97008.03
2022-09-20T17:55:51.311Z,97001.91
2022-09-20T17:58:17.674Z,97001.59
2022-09-20T18:00:44.107Z,97001.06
2022-09-20T18:03:10.510Z,97011.41
2022-09-20T18:05:36.895Z,97016.81
2022-09-20T18:08:03.273Z,97021.03
2022-09-20T18:10:29.652Z,97019.94
2022-09-20T18:12:56.038Z,97024.81
2022-09-20T18:15:22.404Z,97021.38
2022-09-20T18:17:53.826Z,97027.06
2022-09-20T18:20:20.848Z,97015.63
2022-09-20T18:22:47.221Z,97021.81
2022-09-20T18:25:13.618Z,97019.47
2022-09-20T18:27:39.980Z,97020.97
2022-09-20T18:30:06.349Z,97020.19
2022-09-20T18:32:32.733Z,97020.25
2022-09-20T18:34:59.099Z,97027.16
2022-09-20T18:37:25.472Z,97025.59
2022-09-20T18:39:51.852Z,97031.47
2022-09-20T18:42:18.216Z,97029.56
2022-09-20T18:44:44.580Z,97030.34
2022-09-20T18:47:10.955Z,97033.09
2022-09-20T18:49:37.323Z,97036.53
2022-09-20T18:52:03.708Z,97039.44
2022-09-20T18:54:30.090Z,97036.06
2022-09-20T18:56:56.462Z,97034.63
2022-09-20T18:59:22.853Z,97033.25
2022-09-20T19:01:49.298Z,97032.53
2022-09-20T19:04:15.796Z,97040.53
2022-09-20T19:06:42.176Z,97029.72
2022-09-20T19:09:08.576Z,97041.94
2022-09-20T19:11:34.944Z,97047.34
2022-09-20T19:14:01.319Z,97051.59
2022-09-20T19:16:27.761Z,97047.34
2022-09-20T19:18:54.206Z,97043.13
2022-09-20T19:21:20.633Z,97050.03
2022-09-20T19:23:47.010Z,97050.47
2022-09-20T19:26:18.371Z,97051.59
2022-09-20T19:28:45.427Z,97054.25
2022-09-20T19:31:11.804Z,97053.91
2022-09-20T19:33:38.205Z,97059.59
2022-09-20T19:36:04.584Z,97065.38
2022-09-20T19:38:30.950Z,97064.16
2022-09-20T19:40:57.315Z,97068.66
2022-09-20T19:43:23.712Z,97063.56
2022-09-20T19:45:50.070Z,97071.13
2022-09-20T19:48:16.450Z,97070.94
2022-09-20T19:50:42.819Z,97077.75
2022-09-20T19:53:09.199Z,97073.00
2022-09-20T19:55:35.621Z,97073.34
2022-09-20T19:58:02.009Z,97069.91
2022-09-20T20:00:28.398Z,97063.69
2022-09-20T20:02:54.777Z,97069.47
2022-09-20T20:05:21.281Z,97064.47
2022-09-20T20:07:47.657Z,97077.34
2022-09-20T20:10:14.038Z,97075.47
2022-09-20T20:12:40.421Z,97080.34
2022-09-20T20:15:06.798Z,97076.81
2022-09-20T20:17:33.175Z,97069.66
2022-09-20T20:19:59.555Z,97068.47
2022-09-20T20:22:25.946Z,97063.91
2022-09-20T20:24:52.329Z,97078.38
2022-09-20T20:27:18.725Z,97071.47
2022-09-20T20:29:45.116Z,97076.03
2022-09-20T20:32:11.479Z,97083.72
2022-09-20T20:34:37.852Z,97078.72
2022-09-20T20:37:04.258Z,97090.16
2022-09-20T20:39:30.641Z,97091.38
2022-09-20T20:42:01.341Z,97091.38
2022-09-20T20:44:28.418Z,97090.50
2022-09-20T20:46:54.791Z,97088.28
2022-09-20T20:49:21.160Z,97087.81
2022-09-20T20:51:47.533Z,97097.38
2022-09-20T20:54:13.906Z,97089.38
2022-09-20T20:56:40.275Z,97087.50
2022-09-20T20:59:06.745Z,97089.38
2022-09-20T21:01:33.176Z,97083.19
2022-09-20T21:03:59.568Z,97085.16
2022-09-20T21:06:25.943Z,97095.16
2022-09-20T21:08:52.303Z,97084.75
2022-09-20T21:11:18.692Z,97082.50
2022-09-20T21:13:45.073Z,97086.47
2022-09-20T21:16:11.523Z,97094.41
2022-09-20T21:18:37.990Z,97089.31
2022-09-20T21:21:04.361Z,97088.63
2022-09-20T21:23:30.741Z,97095.09
2022-09-20T21:25:57.096Z,97087.84
2022-09-20T21:28:23.465Z,97091.56
2022-09-20T21:30:49.902Z,97083.53
2022-09-20T21:33:16.290Z,97088.03
2022-09-20T21:35:42.665Z,97085.88
2022-09-20T21:38:09.023Z,97088.03
2022-09-20T21:40:35.500Z,97088.78
2022-09-20T21:43:01.889Z,97083.38
2022-09-20T21:45:28.243Z,97073.13
2022-09-20T21:47:54.607Z,97078.81
2022-09-20T21:50:20.974Z,97078.97
2022-09-20T21:52:47.336Z,97078.88
2022-09-20T21:55:13.705Z,97084.16
2022-09-20T21:57:40.069Z,97078.81
2022-09-20T22:00:06.530Z,97077.50
2022-09-20T22:02:32.917Z,97083.53
2022-09-20T22:04:59.304Z,97078.03
2022-09-20T22:07:25.748Z,97077.38
2022-09-20T22:09:52.105Z,97074.31
2022-09-20T22:12:18.473Z,97070.09
2022-09-20T22:14:44.846Z,97070.22
2022-09-20T22:17:11.210Z,97066.81
2022-09-20T22:19:37.577Z,97070.16
2022-09-20T22:22:03.945Z,97069.34
2022-09-20T22:24:30.327Z,97065.47
2022-09-20T22:26:56.702Z,97058.91
2022-09-20T22:29:23.068Z,97064.59
2022-09-20T22:31:49.441Z,97064.59
2022-09-20T22:34:15.807Z,97064.16
2022-09-20T22:36:42.166Z,97066.84
2022-09-20T22:39:08.641Z,97058.72
2022-09-20T22:41:35.037Z,97061.38
2022-09-20T22:44:01.496Z,97057.16
2022-09-20T22:46:27.859Z,97060.19
2022-09-20T22:48:54.322Z,97056.75
2022-09-20T22:51:20.726Z,97050.97
2022-09-20T22:53:47.089Z,97052.19
2022-09-20T22:56:13.458Z,97050.97
2022-09-20T22:58:39.831Z,97052.44
2022-09-20T23:01:06.280Z,97046.34
2022-09-20T23:03:32.698Z,97047.84
2022-09-20T23:05:59.111Z,97049.41
2022-09-20T23:08:25.479Z,97055.88
2022-09-20T23:10:51.848Z,97044.06
2022-09-20T23:13:18.220Z,97049.78
2022-09-20T23:15:44.581Z,97046.22
2022-09-20T23:18:10.944Z,97045.03
2022-09-20T23:20:37.347Z,97048.03
2022-09-20T23:23:03.722Z,97048.88
2022-09-20T23:25:30.076Z,97040.09
2022-09-20T23:27:56.445Z,97037.03
2022-09-20T23:30:22.813Z,97039.25
2022-09-20T23:32:49.175Z,97036.50
2022-09-20T23:35:15.542Z,97041.13
2022-09-20T23:37:41.912Z,97038.13
2022-09-20T23:40:08.308Z,97036.25
2022-09-20T23:42:34.677Z,97041.81
2022-09-20T23:45:01.114Z,97042.16
2022-09-20T23:47:27.489Z,97034.59
2022-09-20T23:49:53.843Z,97036.91
2022-09-20T23:52:20.229Z,97034.25
2022-09-20T23:54:46.589Z,97034.59
2022-09-20T23:57:12.966Z,97041.06
2022-09-20T23:59:39.326Z,97034.59
